createdAt,value
2017-01-02T00:02:43.424Z,19.19
2017-01-02T00:07:43.376Z,19.16
2017-01-02T00:12:43.362Z,19.06
2017-01-02T00:17:43.325Z,18.94
2017-01-02T00:22:43.309Z,18.9
2017-01-02T00:27:43.278Z,18.93
2017-01-02T00:32:43.248Z,18.97
2017-01-02T00:37:43.232Z,18.81
2017-01-02T00:42:42.817Z,18.78
2017-01-02T00:47:43.208Z,18.69
2017-01-02T00:52:43.149Z,18.66
2017-01-02T00:57:42.343Z,18.61
2017-01-02T01:02:42.713Z,18.53
2017-01-02T01:07:42.689Z,18.42
2017-01-02T01:12:42.653Z,18.41
2017-01-02T01:17:42.634Z,18.38
2017-01-02T01:22:43.001Z,18.34
2017-01-02T01:27:42.576Z,18.29
2017-01-02T01:32:42.554Z,18.23
2017-01-02T01:37:42.520Z,18.23
2017-01-02T01:42:42.881Z,18.16
2017-01-02T01:47:42.852Z,18.16
2017-01-02T01:52:42.439Z,18.08
2017-01-02T01:57:42.413Z,17.99
2017-01-02T02:02:42.380Z,17.98
2017-01-02T02:07:41.964Z,17.96
2017-01-02T02:12:42.346Z,17.99
2017-01-02T02:17:42.294Z,17.98
2017-01-02T02:22:42.654Z,17.74
2017-01-02T02:27:42.636Z,17.77
2017-01-02T02:32:42.602Z,17.83
2017-01-02T02:37:42.570Z,17.79
2017-01-02T02:42:42.151Z,17.76
2017-01-02T02:47:42.555Z,17.68
2017-01-02T02:52:42.494Z,17.63
2017-01-02T02:57:42.062Z,17.69
2017-01-02T03:02:42.038Z,17.66
2017-01-02T03:07:42.006Z,17.57
2017-01-02T03:12:42.364Z,17.57
2017-01-02T03:17:42.344Z,17.57
2017-01-02T03:22:42.300Z,17.43
2017-01-02T03:27:41.882Z,17.45
2017-01-02T03:32:42.240Z,17.3
2017-01-02T03:37:42.210Z,17.38
2017-01-02T03:42:42.182Z,17.31
2017-01-02T03:47:42.150Z,17.28
2017-01-02T03:52:41.725Z,17.15
2017-01-02T03:57:42.099Z,17.2
2017-01-02T04:02:41.276Z,17.17
2017-01-02T04:07:42.027Z,17.1
2017-01-02T04:12:41.995Z,17.03
2017-01-02T04:17:41.594Z,17.06
2017-01-02T04:22:41.930Z,17
2017-01-02T04:27:41.890Z,17.02
2017-01-02T04:32:41.860Z,16.91
2017-01-02T04:37:41.824Z,16.92
2017-01-02T04:42:41.798Z,16.87
2017-01-02T04:47:41.760Z,16.88
2017-01-02T04:52:41.735Z,16.87
2017-01-02T04:57:41.691Z,16.77
2017-01-02T05:02:41.652Z,16.74
2017-01-02T05:07:41.642Z,16.69
2017-01-02T05:12:41.202Z,16.67
2017-01-02T05:17:41.552Z,16.69
2017-01-02T05:22:41.524Z,16.55
2017-01-02T05:27:41.490Z,16.66
2017-01-02T05:32:41.069Z,16.55
2017-01-02T05:37:41.032Z,16.59
2017-01-02T05:42:41.384Z,16.58
2017-01-02T05:47:41.351Z,16.49
2017-01-02T05:52:40.922Z,16.47
2017-01-02T05:57:40.897Z,16.42
2017-01-02T06:02:41.243Z,16.47
2017-01-02T06:07:41.221Z,16.42
2017-01-02T06:12:41.181Z,16.37
2017-01-02T06:17:41.143Z,16.33
2017-01-02T06:22:40.746Z,16.36
2017-01-02T06:27:41.072Z,16.36
2017-01-02T06:32:40.649Z,16.26
2017-01-02T06:37:40.613Z,16.32
2017-01-02T06:42:40.575Z,16.67
2017-01-02T06:47:40.923Z,17.03
2017-01-02T06:52:40.511Z,17.4
2017-01-02T06:57:40.858Z,18.23
2017-01-02T07:02:40.436Z,19.32
2017-01-02T07:07:40.797Z,19.85
2017-01-02T07:12:40.781Z,20.48
2017-01-02T07:17:40.365Z,20.64
2017-01-02T07:22:40.344Z,20.76
2017-01-02T07:27:40.715Z,20.46
2017-01-02T07:32:39.913Z,20.46
2017-01-02T07:37:40.679Z,20.35
2017-01-02T07:42:40.661Z,20.22
2017-01-02T07:47:40.629Z,20.25
2017-01-02T07:52:40.614Z,20.16
2017-01-02T07:57:40.594Z,20.11
2017-01-02T08:02:40.581Z,20.12
2017-01-02T08:07:40.545Z,20.16
2017-01-02T08:12:40.131Z,20.16
2017-01-02T08:17:40.505Z,20.23
2017-01-02T08:22:40.119Z,20.18
2017-01-02T08:27:40.468Z,20.07
2017-01-02T08:32:40.438Z,19.98
2017-01-02T08:37:40.418Z,20.07
2017-01-02T08:42:40.010Z,20.01
2017-01-02T08:47:39.990Z,20.15
2017-01-02T08:52:39.966Z,20.18
2017-01-02T08:57:39.947Z,20.15
2017-01-02T09:02:40.312Z,20.18
2017-01-02T09:07:39.904Z,20.2
2017-01-02T09:12:39.882Z,20.1
2017-01-02T09:17:40.244Z,20.08
2017-01-02T09:22:40.252Z,20.11
2017-01-02T09:27:40.209Z,20.18
2017-01-02T09:32:40.174Z,20.2
2017-01-02T09:37:39.767Z,20.3
2017-01-02T09:42:39.743Z,20.38
2017-01-02T09:47:40.111Z,20.34
2017-01-02T09:52:39.701Z,20.35
2017-01-02T09:57:40.065Z,20.48
2017-01-02T10:02:39.657Z,20.44
2017-01-02T10:07:40.022Z,20.46
2017-01-02T10:12:39.615Z,20.56
2017-01-02T10:17:39.980Z,20.54
2017-01-02T10:22:39.180Z,20.86
2017-01-02T10:27:39.943Z,20.85
2017-01-02T10:32:39.538Z,20.85
2017-01-02T10:37:39.127Z,20.83
2017-01-02T10:42:39.889Z,20.78
2017-01-02T10:47:39.482Z,20.78
2017-01-02T10:52:39.461Z,20.75
2017-01-02T10:57:39.839Z,20.81
2017-01-02T11:02:39.826Z,20.63
2017-01-02T11:07:39.411Z,20.57
2017-01-02T11:12:39.769Z,20.93
2017-01-02T11:17:39.373Z,21.41
2017-01-02T11:22:39.391Z,21.45
2017-01-02T11:27:39.730Z,21.8
2017-01-02T11:32:39.750Z,22.22
2017-01-02T11:37:39.712Z,27.75
2017-01-02T11:42:38.929Z,26.41
2017-01-02T11:47:39.701Z,23.72
2017-01-02T11:52:39.692Z,23.09
2017-01-02T11:57:39.297Z,23.78
2017-01-02T12:02:39.299Z,22.81
2017-01-02T12:07:39.288Z,22.2
2017-01-02T12:12:39.270Z,21.96
2017-01-02T12:17:39.785Z,21.71
2017-01-02T12:22:39.233Z,21.4
2017-01-02T12:27:39.617Z,21.28
2017-01-02T12:32:39.600Z,20.93
2017-01-02T12:37:39.195Z,20.63
2017-01-02T12:42:39.567Z,20.4
2017-01-02T12:47:39.166Z,20.22
2017-01-02T12:52:39.535Z,19.85
2017-01-02T12:57:39.527Z,19.74
2017-01-02T13:02:39.507Z,19.7
2017-01-02T13:07:39.097Z,19.7
2017-01-02T13:12:39.466Z,19.67
2017-01-02T13:17:39.453Z,19.57
2017-01-02T13:22:39.423Z,19.65
2017-01-02T13:27:39.016Z,19.75
2017-01-02T13:32:38.998Z,19.7
2017-01-02T13:37:38.974Z,19.74
2017-01-02T21:22:49.200Z,18.91
2017-01-02T21:27:48.798Z,18.89
2017-01-02T21:32:49.567Z,18.86
2017-01-02T21:37:49.145Z,18.76
2017-01-02T21:42:49.063Z,18.82
2017-01-02T21:47:49.032Z,18.81
2017-01-02T21:52:49.412Z,18.9
2017-01-02T21:57:49.378Z,18.75
2017-01-02T22:02:49.339Z,18.71
2017-01-02T22:07:49.311Z,18.59
2017-01-02T22:12:49.290Z,18.53
2017-01-02T22:17:49.257Z,18.42
2017-01-02T22:22:48.839Z,18.34
2017-01-02T22:27:49.202Z,18.23
2017-01-02T22:32:49.163Z,18.08
2017-01-02T22:37:48.745Z,18.08
2017-01-02T22:42:48.713Z,17.96
2017-01-02T22:47:48.689Z,17.98
2017-01-02T22:52:49.051Z,17.96
2017-01-02T22:57:48.252Z,17.81
2017-01-02T23:02:48.970Z,17.66
2017-01-02T23:07:48.942Z,17.65
2017-01-02T23:12:48.522Z,17.6
2017-01-02T23:17:48.884Z,17.57
2017-01-02T23:22:48.075Z,17.45
2017-01-02T23:27:48.842Z,17.4
2017-01-02T23:32:48.400Z,17.39
2017-01-02T23:37:48.359Z,17.28
2017-01-02T23:42:48.337Z,17.24
2017-01-02T23:47:48.699Z,17.2
2017-01-02T23:52:48.650Z,17.2
2017-01-02T23:57:48.622Z,17.13
